createdAt,value
2024-01-25T00:00:01.264Z,1.98
2024-01-25T00:03:03.063Z,1.92
2024-01-25T00:06:07.732Z,3.67
2024-01-25T00:09:10.412Z,2.60
2024-01-25T00:12:12.172Z,2.03
2024-01-25T00:15:15.057Z,2.67
2024-01-25T00:18:16.782Z,2.15
2024-01-25T00:21:19.255Z,2.38
2024-01-25T00:24:20.965Z,2.13
2024-01-25T00:27:23.643Z,2.10
2024-01-25T00:30:25.367Z,2.17
2024-01-25T00:33:28.446Z,3.05
2024-01-25T00:36:30.600Z,1.92
2024-01-25T00:39:33.677Z,2.45
2024-01-25T00:42:42.514Z,2.03
2024-01-25T00:45:45.211Z,2.30
2024-01-25T00:48:47.442Z,2.65
2024-01-25T00:51:52.184Z,1.92
2024-01-25T00:54:54.185Z,3.25
2024-01-25T00:57:57.475Z,2.63
2024-01-25T01:00:59.693Z,2.10
2024-01-25T01:04:02.417Z,2.00
2024-01-25T01:07:05.046Z,1.92
2024-01-25T01:10:08.847Z,2.78
2024-01-25T01:13:10.646Z,2.20
2024-01-25T01:16:13.823Z,2.17
2024-01-25T01:19:15.738Z,2.30
2024-01-25T01:22:18.669Z,2.50
2024-01-25T01:25:20.551Z,2.42
2024-01-25T01:28:23.539Z,2.78
2024-01-25T01:31:25.358Z,2.10
2024-01-25T01:34:27.565Z,1.88
2024-01-25T01:37:29.335Z,2.28
2024-01-25T01:40:31.664Z,1.77
2024-01-25T01:43:33.355Z,2.97
2024-01-25T01:46:38.400Z,1.90
2024-01-25T01:49:40.356Z,3.25
2024-01-25T01:52:43.541Z,2.97
2024-01-25T01:55:45.253Z,3.85
2024-01-25T01:58:49.194Z,2.45
2024-01-25T02:04:54.828Z,2.40
2024-01-25T02:07:56.647Z,2.38
2024-01-25T02:10:58.892Z,2.67
2024-01-25T02:14:01.131Z,2.55
2024-01-25T02:17:03.448Z,2.92
2024-01-25T02:20:06.038Z,2.67
2024-01-25T02:23:08.514Z,2.50
2024-01-25T02:26:10.248Z,3.38
2024-01-25T02:29:12.861Z,2.30
2024-01-25T02:32:14.533Z,2.88
2024-01-25T02:35:17.357Z,1.70
2024-01-25T02:38:19.172Z,2.33
2024-01-25T02:41:21.446Z,2.65
2024-01-25T02:44:23.129Z,3.00
2024-01-25T02:47:26.118Z,3.00
2024-01-25T02:50:27.887Z,2.67
2024-01-25T02:53:30.228Z,2.55
2024-01-25T02:56:31.859Z,1.92
2024-01-25T02:59:34.130Z,2.33
2024-01-25T03:02:35.789Z,2.20
2024-01-25T03:05:38.190Z,2.70
2024-01-25T03:08:39.892Z,2.67
2024-01-25T03:11:42.424Z,2.58
2024-01-25T03:14:44.121Z,3.05
2024-01-25T03:17:46.842Z,1.88
2024-01-25T03:20:48.544Z,2.15
2024-01-25T03:23:51.045Z,2.75
2024-01-25T03:26:52.758Z,1.95
2024-01-25T03:29:55.044Z,3.65
2024-01-25T03:32:56.745Z,3.10
2024-01-25T03:36:03.831Z,2.03
2024-01-25T03:39:05.518Z,2.17
2024-01-25T03:42:07.771Z,2.95
2024-01-25T03:45:09.673Z,1.92
2024-01-25T03:48:11.998Z,2.70
2024-01-25T03:51:13.827Z,1.92
2024-01-25T03:54:16.584Z,3.05
2024-01-25T03:57:18.328Z,2.30
2024-01-25T04:00:21.186Z,3.65
2024-01-25T04:03:23.055Z,2.00
2024-01-25T04:06:26.004Z,3.22
2024-01-25T04:09:27.698Z,2.90
2024-01-25T04:12:29.872Z,2.72
2024-01-25T04:15:31.854Z,2.22
2024-01-25T04:18:34.753Z,2.13
2024-01-25T04:21:38.702Z,2.17
2024-01-25T04:24:40.502Z,2.40
2024-01-25T04:27:42.288Z,2.33
2024-01-25T04:30:45.080Z,2.28
2024-01-25T04:33:48.911Z,2.58
2024-01-25T04:36:52.242Z,2.83
2024-01-25T04:39:53.943Z,3.17
2024-01-25T04:42:56.219Z,2.70
2024-01-25T04:45:58.001Z,2.38
2024-01-25T04:49:00.737Z,2.50
2024-01-25T04:52:02.823Z,2.45
2024-01-25T04:55:05.406Z,2.00
2024-01-25T04:58:07.109Z,2.58
2024-01-25T05:01:09.967Z,2.70
2024-01-25T05:04:11.879Z,2.10
2024-01-25T05:07:14.049Z,1.92
2024-01-25T05:10:15.937Z,2.90
2024-01-25T05:13:18.053Z,2.80
2024-01-25T05:16:19.794Z,2.88
2024-01-25T05:19:22.205Z,2.60
2024-01-25T05:22:24.086Z,2.53
2024-01-25T05:25:26.682Z,3.13
2024-01-25T05:28:28.446Z,2.25
2024-01-25T05:31:30.561Z,2.78
2024-01-25T05:34:32.493Z,2.47
2024-01-25T05:37:34.567Z,2.50
2024-01-25T05:40:36.253Z,2.88
2024-01-25T05:43:38.661Z,2.55
2024-01-25T05:46:40.366Z,2.08
2024-01-25T05:49:42.473Z,2.28
2024-01-25T05:52:44.253Z,2.97
2024-01-25T05:55:46.498Z,2.22
2024-01-25T05:58:48.165Z,2.10
2024-01-25T06:01:50.269Z,3.55
2024-01-25T06:04:52.625Z,3.45
2024-01-25T06:07:54.688Z,2.33
2024-01-25T06:10:56.532Z,3.13
2024-01-25T06:13:58.557Z,2.38
2024-01-25T06:17:00.312Z,2.47
2024-01-25T06:20:03.951Z,2.92
2024-01-25T06:23:05.881Z,3.17
2024-01-25T06:26:08.011Z,2.97
2024-01-25T06:29:09.764Z,3.15
2024-01-25T06:32:16.396Z,3.30
2024-01-25T06:35:24.443Z,2.83
2024-01-25T06:38:26.496Z,2.92
2024-01-25T06:41:28.148Z,2.97
2024-01-25T06:44:30.295Z,3.47
2024-01-25T06:47:32.045Z,3.10
2024-01-25T06:50:34.194Z,2.30
2024-01-25T06:53:35.987Z,2.42
2024-01-25T06:56:37.645Z,3.17
2024-01-25T06:59:39.286Z,3.17
2024-01-25T07:02:41.290Z,3.08
2024-01-25T07:05:43.437Z,3.58
2024-01-25T07:08:46.185Z,2.83
2024-01-25T07:11:47.906Z,3.28
2024-01-25T07:14:49.939Z,4.93
2024-01-25T07:17:51.620Z,2.90
2024-01-25T07:20:53.616Z,2.40
2024-01-25T07:23:55.254Z,2.80
2024-01-25T07:26:57.259Z,2.83
2024-01-25T07:29:59.006Z,3.10
2024-01-25T07:33:01.110Z,3.13
2024-01-25T07:36:02.834Z,2.40
2024-01-25T07:39:04.825Z,2.83
2024-01-25T07:42:06.532Z,2.88
2024-01-25T07:45:09.193Z,3.13
2024-01-25T07:48:15.137Z,3.50
2024-01-25T07:51:19.448Z,3.05
2024-01-25T07:54:21.574Z,2.40
2024-01-25T07:57:23.586Z,2.60
2024-01-25T08:00:25.214Z,3.88
2024-01-25T08:03:26.887Z,3.28
2024-01-25T08:06:28.631Z,3.65
2024-01-25T08:09:30.708Z,2.47
2024-01-25T08:12:32.440Z,3.83
2024-01-25T08:15:34.615Z,2.35
2024-01-25T08:18:36.397Z,4.72
2024-01-25T08:21:38.824Z,4.10
2024-01-25T08:24:41.184Z,2.60
2024-01-25T08:27:43.218Z,3.03
2024-01-25T08:30:45.103Z,3.50
2024-01-25T08:33:47.894Z,3.33
2024-01-25T08:36:49.803Z,3.45
2024-01-25T08:39:51.977Z,2.70
2024-01-25T08:42:53.826Z,3.03
2024-01-25T08:45:55.822Z,3.38
2024-01-25T08:48:57.649Z,3.78
2024-01-25T08:51:59.743Z,2.50
2024-01-25T08:55:01.464Z,2.65
2024-01-25T08:58:03.231Z,2.65
2024-01-25T09:01:05.217Z,2.67
2024-01-25T09:04:07.358Z,2.35
2024-01-25T09:07:09.137Z,3.08
2024-01-25T09:10:11.475Z,4.22
2024-01-25T09:13:13.199Z,2.88
2024-01-25T09:16:17.222Z,2.72
2024-01-25T09:22:21.304Z,2.65
2024-01-25T09:25:23.792Z,3.10
2024-01-25T09:28:25.742Z,2.35
2024-01-25T09:31:27.663Z,2.97
2024-01-25T09:34:29.811Z,3.22
2024-01-25T09:37:34.065Z,3.28
2024-01-25T09:40:36.640Z,3.40
2024-01-25T09:43:38.490Z,2.45
2024-01-25T09:46:42.717Z,2.55
2024-01-25T09:52:55.062Z,2.45
2024-01-25T09:56:06.649Z,2.95
2024-01-25T09:59:09.944Z,2.63
2024-01-25T10:02:12.543Z,2.67
2024-01-25T10:05:15.061Z,2.65
2024-01-25T10:08:17.116Z,2.40
2024-01-25T10:11:19.234Z,2.60
2024-01-25T10:14:21.166Z,1.95
2024-01-25T10:17:23.261Z,4.68
2024-01-25T10:20:26.225Z,3.08
2024-01-25T10:23:30.270Z,2.95
2024-01-25T10:26:35.192Z,2.75
2024-01-25T10:29:37.346Z,3.25
2024-01-25T10:32:41.902Z,2.13
2024-01-25T10:35:44.852Z,2.78
2024-01-25T10:38:49.465Z,3.42
2024-01-25T10:41:52.712Z,2.85
2024-01-25T10:44:55.700Z,3.10
2024-01-25T10:47:58.163Z,2.70
2024-01-25T10:51:00.419Z,3.35
2024-01-25T10:54:02.556Z,2.50
2024-01-25T10:57:06.139Z,3.05
2024-01-25T11:03:36.059Z,3.38
2024-01-25T11:06:38.324Z,2.72
2024-01-25T11:09:40.474Z,2.83
2024-01-25T11:13:02.157Z,2.53
2024-01-25T11:16:18.268Z,2.67
2024-01-25T11:19:23.503Z,3.05
2024-01-25T11:22:36.088Z,2.60
2024-01-25T11:25:39.378Z,3.28
2024-01-25T11:28:41.154Z,2.90
2024-01-25T11:31:47.687Z,2.72
2024-01-25T11:34:59.941Z,2.45
2024-01-25T11:38:02.407Z,2.78
2024-01-25T11:41:04.211Z,4.40
2024-01-25T11:44:06.355Z,2.95
2024-01-25T11:47:08.081Z,2.67
2024-01-25T11:50:12.368Z,2.58
2024-01-25T11:53:14.256Z,2.50
2024-01-25T11:56:21.660Z,2.08
2024-01-25T11:59:23.477Z,2.65
2024-01-25T12:02:25.896Z,3.28
2024-01-25T12:05:27.960Z,2.50
2024-01-25T12:08:29.879Z,2.80
2024-01-25T12:11:31.850Z,2.65
2024-01-25T12:14:33.881Z,2.75
2024-01-25T12:17:36.251Z,2.47
2024-01-25T12:23:41.195Z,2.65
2024-01-25T12:26:43.527Z,2.80
2024-01-25T12:29:45.175Z,3.22
2024-01-25T12:32:50.029Z,3.38
2024-01-25T12:35:52.083Z,2.50
2024-01-25T12:38:54.223Z,2.10
2024-01-25T12:41:56.096Z,2.78
2024-01-25T12:44:58.137Z,2.63
2024-01-25T12:47:59.928Z,2.80
2024-01-25T12:51:02.969Z,2.67
2024-01-25T12:54:05.301Z,2.55
2024-01-25T12:57:07.770Z,2.92
2024-01-25T13:00:10.019Z,2.53
2024-01-25T13:03:12.589Z,2.80
2024-01-25T13:06:15.045Z,2.22
2024-01-25T13:09:16.855Z,2.65
2024-01-25T13:12:19.514Z,3.38
2024-01-25T13:15:21.234Z,4.15
2024-01-25T13:18:23.454Z,2.72
2024-01-25T13:21:25.681Z,2.75
2024-01-25T13:24:27.373Z,3.28
2024-01-25T13:27:29.838Z,3.33
2024-01-25T13:30:31.592Z,3.47
2024-01-25T13:33:34.032Z,2.90
2024-01-25T13:36:36.332Z,2.17
2024-01-25T13:39:38.387Z,2.70
2024-01-25T13:42:40.829Z,2.40
2024-01-25T13:45:42.612Z,2.13
2024-01-25T13:48:44.662Z,2.85
2024-01-25T13:51:49.072Z,2.88
2024-01-25T13:54:51.446Z,2.40
2024-01-25T13:57:53.771Z,2.72
2024-01-25T14:00:55.627Z,2.53
2024-01-25T14:03:58.485Z,3.15
2024-01-25T14:07:00.738Z,3.85
2024-01-25T14:10:02.635Z,2.58
2024-01-25T14:13:05.147Z,2.58
2024-01-25T14:16:07.242Z,3.03
2024-01-25T14:19:09.797Z,2.53
2024-01-25T14:22:22.500Z,2.83
2024-01-25T14:25:31.864Z,3.45
2024-01-25T14:28:34.512Z,3.35
2024-01-25T14:31:37.162Z,2.95
2024-01-25T14:34:39.655Z,3.53
2024-01-25T14:37:41.897Z,3.10
2024-01-25T14:40:53.643Z,3.53
2024-01-25T14:44:01.596Z,2.97
2024-01-25T14:47:04.043Z,2.50
2024-01-25T14:50:06.722Z,3.00
2024-01-25T14:53:08.944Z,3.10
2024-01-25T14:56:10.589Z,3.70
2024-01-25T14:59:13.572Z,5.82
2024-01-25T15:02:15.779Z,4.15
2024-01-25T15:05:17.517Z,3.53
2024-01-25T15:08:20.294Z,4.53
2024-01-25T15:11:22.123Z,4.20
2024-01-25T15:14:25.091Z,5.05
2024-01-25T15:17:27.423Z,4.25
2024-01-25T15:20:29.102Z,3.90
2024-01-25T15:23:31.681Z,3.97
2024-01-25T15:26:33.470Z,3.92
2024-01-25T15:29:35.140Z,4.65
2024-01-25T15:32:39.106Z,3.28
2024-01-25T15:35:40.951Z,4.22
2024-01-25T15:38:42.693Z,3.40
2024-01-25T15:41:45.172Z,4.22
2024-01-25T15:44:46.867Z,3.00
2024-01-25T15:47:48.562Z,3.00
2024-01-25T15:50:50.299Z,3.30
2024-01-25T15:53:53.326Z,3.70
2024-01-25T15:56:55.431Z,3.35
2024-01-25T15:59:57.164Z,3.80
2024-01-25T16:02:59.749Z,4.80
2024-01-25T16:06:01.674Z,13.55
2024-01-25T16:09:04.535Z,5.13
2024-01-25T16:12:10.873Z,4.22
2024-01-25T16:15:12.720Z,4.97
2024-01-25T16:18:15.704Z,3.67
2024-01-25T16:21:17.962Z,5.30
2024-01-25T16:24:19.949Z,4.00
2024-01-25T16:27:22.143Z,3.47
2024-01-25T16:30:23.832Z,4.07
2024-01-25T16:33:26.870Z,3.85
2024-01-25T16:36:28.702Z,4.13
2024-01-25T16:39:30.421Z,4.88
2024-01-25T16:42:33.329Z,21.60
2024-01-25T16:45:35.700Z,3.70
2024-01-25T16:48:37.520Z,3.97
2024-01-25T16:51:40.058Z,3.78
2024-01-25T16:54:41.783Z,3.20
2024-01-25T16:57:44.441Z,4.43
2024-01-25T17:00:46.930Z,3.92
2024-01-25T17:03:48.752Z,4.47
2024-01-25T17:06:51.559Z,4.65
2024-01-25T17:09:53.848Z,4.38
2024-01-25T17:12:55.589Z,4.60
2024-01-25T17:15:57.851Z,3.90
2024-01-25T17:18:59.914Z,3.72
2024-01-25T17:22:03.114Z,4.20
2024-01-25T17:25:05.885Z,5.53
2024-01-25T17:28:07.571Z,11.05
2024-01-25T17:31:10.034Z,10.00
2024-01-25T17:34:13.640Z,8.75
2024-01-25T17:37:17.785Z,7.40
2024-01-25T17:40:20.034Z,7.45
2024-01-25T17:43:25.405Z,6.47
2024-01-25T17:46:28.472Z,6.88
2024-01-25T17:49:30.806Z,9.30
2024-01-25T17:52:32.505Z,8.95
2024-01-25T17:55:35.026Z,23.20
2024-01-25T17:58:36.988Z,45.08
2024-01-25T18:01:38.754Z,39.17
2024-01-25T18:04:41.550Z,14.65
2024-01-25T18:07:43.203Z,11.02
2024-01-25T18:10:45.683Z,9.88
2024-01-25T18:13:47.757Z,10.23
2024-01-25T18:16:49.393Z,9.52
2024-01-25T18:19:52.053Z,9.15
2024-01-25T18:22:53.751Z,13.07
2024-01-25T18:25:56.693Z,10.63
2024-01-25T18:28:58.983Z,8.85
2024-01-25T18:32:00.653Z,7.55
2024-01-25T18:35:03.324Z,13.05
2024-01-25T18:38:05.322Z,7.20
2024-01-25T18:41:06.983Z,6.95
2024-01-25T18:44:09.444Z,5.53
2024-01-25T18:47:11.107Z,5.22
2024-01-25T18:50:12.766Z,5.25
2024-01-25T18:53:15.414Z,4.93
2024-01-25T18:56:26.677Z,5.32
2024-01-25T18:59:31.823Z,6.03
2024-01-25T19:02:34.263Z,5.30
2024-01-25T19:05:36.238Z,5.32
2024-01-25T19:08:39.166Z,7.25
2024-01-25T19:11:40.827Z,8.00
2024-01-25T19:14:43.037Z,8.27
2024-01-25T19:17:46.555Z,7.35
2024-01-25T19:20:48.300Z,10.43
2024-01-25T19:23:50.859Z,7.03
2024-01-25T19:26:53.627Z,5.85
2024-01-25T19:29:55.283Z,4.28
2024-01-25T19:32:57.873Z,5.55
2024-01-25T19:35:59.622Z,5.80
2024-01-25T19:39:01.588Z,7.95
2024-01-25T19:42:03.925Z,5.78
2024-01-25T19:45:05.816Z,7.55
2024-01-25T19:48:08.590Z,7.45
2024-01-25T19:51:10.919Z,5.70
2024-01-25T19:54:12.574Z,5.85
2024-01-25T19:57:16.482Z,8.98
2024-01-25T20:00:18.638Z,7.28
2024-01-25T20:03:22.450Z,6.35
2024-01-25T20:06:27.453Z,5.57
2024-01-25T20:09:29.444Z,6.68
2024-01-25T20:12:32.837Z,6.68
2024-01-25T20:15:34.860Z,5.97
2024-01-25T20:18:38.043Z,5.55
2024-01-25T20:21:40.292Z,8.13
2024-01-25T20:24:42.016Z,6.57
2024-01-25T20:27:44.748Z,6.72
2024-01-25T20:30:47.071Z,6.25
2024-01-25T20:33:48.832Z,6.10
2024-01-25T20:36:51.326Z,6.47
2024-01-25T20:39:53.442Z,6.53
2024-01-25T20:42:56.419Z,6.80
2024-01-25T20:45:58.566Z,7.60
2024-01-25T20:49:00.660Z,6.97
2024-01-25T20:52:03.216Z,6.95
2024-01-25T20:55:06.507Z,7.50
2024-01-25T20:58:08.182Z,6.88
2024-01-25T21:01:10.785Z,8.20
2024-01-25T21:04:12.740Z,6.82
2024-01-25T21:07:16.684Z,23.40
2024-01-25T21:10:19.592Z,11.00
2024-01-25T21:13:21.494Z,7.07
2024-01-25T21:16:25.534Z,7.15
2024-01-25T21:19:27.568Z,7.45
2024-01-25T21:22:30.147Z,6.80
2024-01-25T21:25:32.395Z,7.13
2024-01-25T21:28:34.090Z,6.50
2024-01-25T21:31:36.386Z,6.93
2024-01-25T21:34:38.600Z,7.75
2024-01-25T21:37:40.296Z,6.63
2024-01-25T21:40:42.479Z,8.32
2024-01-25T21:43:44.134Z,7.55
2024-01-25T21:46:47.095Z,9.30
2024-01-25T21:49:49.292Z,7.90
2024-01-25T21:52:51.252Z,11.10
2024-01-25T21:55:54.697Z,11.60
2024-01-25T21:58:56.956Z,11.57
2024-01-25T22:01:58.658Z,11.70
2024-01-25T22:05:01.325Z,11.65
2024-01-25T22:08:03.784Z,10.23
2024-01-25T22:11:05.457Z,8.85
2024-01-25T22:14:07.489Z,10.55
2024-01-25T22:17:09.132Z,9.95
2024-01-25T22:20:11.554Z,10.45
2024-01-25T22:23:13.286Z,10.57
2024-01-25T22:26:16.453Z,10.00
2024-01-25T22:29:18.185Z,10.55
2024-01-25T22:32:19.840Z,11.63
2024-01-25T22:35:22.467Z,12.68
2024-01-25T22:38:24.108Z,10.10
2024-01-25T22:41:26.636Z,9.73
2024-01-25T22:44:28.253Z,9.43
2024-01-25T22:47:30.393Z,9.57
2024-01-25T22:50:32.084Z,9.48
2024-01-25T22:53:33.721Z,7.40
2024-01-25T22:56:54.899Z,7.10
2024-01-25T22:59:57.162Z,8.23
2024-01-25T23:02:59.153Z,7.32
2024-01-25T23:06:01.840Z,7.40
2024-01-25T23:09:03.853Z,6.53
2024-01-25T23:12:06.644Z,6.45
2024-01-25T23:15:09.728Z,6.88
2024-01-25T23:18:11.470Z,5.90
2024-01-25T23:21:14.183Z,6.75
2024-01-25T23:24:15.820Z,6.15
2024-01-25T23:27:18.427Z,6.22
2024-01-25T23:30:20.655Z,6.70
2024-01-25T23:33:22.646Z,7.20
2024-01-25T23:36:25.619Z,6.00
2024-01-25T23:39:27.342Z,6.55
2024-01-25T23:42:30.149Z,5.95
2024-01-25T23:45:32.781Z,6.25
2024-01-25T23:48:34.789Z,6.00
2024-01-25T23:51:42.111Z,6.25
2024-01-25T23:54:44.159Z,6.60
2024-01-25T23:57:47.121Z,6.10
